sensor_id;sensor_type;location;lat;lon;timestamp;P1;durP1;ratioP1;P2;durP2;ratioP2
76597;SDS011;65486;53.144;18.134;2023-12-20T00:01:31;7.40;;;4.30;;
76597;SDS011;65486;53.144;18.134;2023-12-20T00:03:58;4.80;;;2.80;;
76597;SDS011;65486;53.144;18.134;2023-12-20T00:06:25;8.00;;;4.20;;
76597;SDS011;65486;53.144;18.134;2023-12-20T00:08:52;7.00;;;3.90;;
76597;SDS011;65486;53.144;18.134;2023-12-20T00:11:20;8.80;;;4.90;;
76597;SDS011;65486;53.144;18.134;2023-12-20T00:13:47;6.50;;;3.80;;
76597;SDS011;65486;53.144;18.134;2023-12-20T00:16:18;6.90;;;4.00;;
76597;SDS011;65486;53.144;18.134;2023-12-20T00:18:51;6.70;;;3.70;;
76597;SDS011;65486;53.144;18.134;2023-12-20T00:21:19;7.80;;;3.90;;
76597;SDS011;65486;53.144;18.134;2023-12-20T00:23:48;7.80;;;4.30;;
76597;SDS011;65486;53.144;18.134;2023-12-20T00:26:16;6.80;;;3.80;;
76597;SDS011;65486;53.144;18.134;2023-12-20T00:28:49;6.10;;;3.70;;
76597;SDS011;65486;53.144;18.134;2023-12-20T00:31:18;7.60;;;3.80;;
76597;SDS011;65486;53.144;18.134;2023-12-20T00:33:45;5.90;;;2.80;;
76597;SDS011;65486;53.144;18.134;2023-12-20T00:36:13;6.80;;;3.70;;
76597;SDS011;65486;53.144;18.134;2023-12-20T00:38:40;5.60;;;3.30;;
76597;SDS011;65486;53.144;18.134;2023-12-20T00:41:07;12.40;;;5.70;;
76597;SDS011;65486;53.144;18.134;2023-12-20T00:43:38;5.80;;;3.10;;
76597;SDS011;65486;53.144;18.134;2023-12-20T00:46:09;6.20;;;3.40;;
76597;SDS011;65486;53.144;18.134;2023-12-20T00:48:39;8.20;;;3.80;;
76597;SDS011;65486;53.144;18.134;2023-12-20T00:51:08;9.90;;;4.70;;
76597;SDS011;65486;53.144;18.134;2023-12-20T00:53:37;7.60;;;4.00;;
76597;SDS011;65486;53.144;18.134;2023-12-20T00:56:06;7.80;;;4.20;;
76597;SDS011;65486;53.144;18.134;2023-12-20T00:58:33;8.30;;;4.80;;
76597;SDS011;65486;53.144;18.134;2023-12-20T01:01:03;10.10;;;5.10;;
76597;SDS011;65486;53.144;18.134;2023-12-20T01:03:30;11.40;;;5.50;;
76597;SDS011;65486;53.144;18.134;2023-12-20T01:05:57;8.90;;;4.20;;
76597;SDS011;65486;53.144;18.134;2023-12-20T01:08:25;8.20;;;4.40;;
76597;SDS011;65486;53.144;18.134;2023-12-20T01:10:53;7.30;;;4.00;;
76597;SDS011;65486;53.144;18.134;2023-12-20T01:13:20;7.50;;;3.50;;
76597;SDS011;65486;53.144;18.134;2023-12-20T01:15:48;7.00;;;3.60;;
76597;SDS011;65486;53.144;18.134;2023-12-20T01:18:17;6.20;;;3.40;;
76597;SDS011;65486;53.144;18.134;2023-12-20T01:20:44;8.20;;;4.10;;
76597;SDS011;65486;53.144;18.134;2023-12-20T01:23:12;9.90;;;5.50;;
76597;SDS011;65486;53.144;18.134;2023-12-20T01:25:39;8.10;;;4.60;;
76597;SDS011;65486;53.144;18.134;2023-12-20T01:28:06;8.30;;;4.90;;
76597;SDS011;65486;53.144;18.134;2023-12-20T01:30:33;8.40;;;4.50;;
76597;SDS011;65486;53.144;18.134;2023-12-20T01:33:00;7.30;;;3.70;;
76597;SDS011;65486;53.144;18.134;2023-12-20T01:35:30;7.30;;;4.60;;
76597;SDS011;65486;53.144;18.134;2023-12-20T01:37:58;8.00;;;5.20;;
76597;SDS011;65486;53.144;18.134;2023-12-20T01:40:25;9.50;;;5.40;;
76597;SDS011;65486;53.144;18.134;2023-12-20T01:43:08;7.50;;;4.50;;
76597;SDS011;65486;53.144;18.134;2023-12-20T01:45:36;8.60;;;4.50;;
76597;SDS011;65486;53.144;18.134;2023-12-20T01:48:03;5.80;;;3.40;;
76597;SDS011;65486;53.144;18.134;2023-12-20T01:50:32;6.60;;;3.90;;
76597;SDS011;65486;53.144;18.134;2023-12-20T01:53:02;8.60;;;4.90;;
76597;SDS011;65486;53.144;18.134;2023-12-20T01:55:33;7.20;;;4.30;;
76597;SDS011;65486;53.144;18.134;2023-12-20T01:58:03;7.40;;;4.30;;
76597;SDS011;65486;53.144;18.134;2023-12-20T02:00:34;7.50;;;4.00;;
76597;SDS011;65486;53.144;18.134;2023-12-20T02:03:04;9.90;;;6.10;;
76597;SDS011;65486;53.144;18.134;2023-12-20T02:05:47;10.00;;;5.40;;
76597;SDS011;65486;53.144;18.134;2023-12-20T02:08:15;9.60;;;4.10;;
76597;SDS011;65486;53.144;18.134;2023-12-20T02:10:43;9.10;;;5.40;;
76597;SDS011;65486;53.144;18.134;2023-12-20T02:13:10;8.90;;;5.30;;
76597;SDS011;65486;53.144;18.134;2023-12-20T02:15:38;6.70;;;3.80;;
76597;SDS011;65486;53.144;18.134;2023-12-20T02:18:05;7.20;;;4.00;;
76597;SDS011;65486;53.144;18.134;2023-12-20T02:20:32;8.70;;;4.40;;
76597;SDS011;65486;53.144;18.134;2023-12-20T02:22:59;7.40;;;4.30;;
76597;SDS011;65486;53.144;18.134;2023-12-20T02:25:27;9.00;;;5.10;;
76597;SDS011;65486;53.144;18.134;2023-12-20T02:27:54;9.00;;;5.40;;
76597;SDS011;65486;53.144;18.134;2023-12-20T02:30:23;9.00;;;4.70;;
76597;SDS011;65486;53.144;18.134;2023-12-20T02:32:55;7.30;;;4.20;;
76597;SDS011;65486;53.144;18.134;2023-12-20T02:35:23;7.20;;;3.80;;
76597;SDS011;65486;53.144;18.134;2023-12-20T02:37:50;7.80;;;4.70;;
76597;SDS011;65486;53.144;18.134;2023-12-20T02:40:17;7.80;;;4.90;;
76597;SDS011;65486;53.144;18.134;2023-12-20T02:42:44;10.20;;;6.20;;
76597;SDS011;65486;53.144;18.134;2023-12-20T02:45:11;7.30;;;3.90;;
76597;SDS011;65486;53.144;18.134;2023-12-20T02:47:38;5.40;;;3.10;;
76597;SDS011;65486;53.144;18.134;2023-12-20T02:50:06;7.00;;;3.80;;
76597;SDS011;65486;53.144;18.134;2023-12-20T02:52:33;7.80;;;4.70;;
76597;SDS011;65486;53.144;18.134;2023-12-20T02:55:01;7.60;;;4.50;;
76597;SDS011;65486;53.144;18.134;2023-12-20T02:57:28;8.50;;;5.50;;
76597;SDS011;65486;53.144;18.134;2023-12-20T02:59:55;7.60;;;4.30;;
76597;SDS011;65486;53.144;18.134;2023-12-20T03:02:24;8.10;;;4.30;;
76597;SDS011;65486;53.144;18.134;2023-12-20T03:04:51;7.00;;;4.10;;
76597;SDS011;65486;53.144;18.134;2023-12-20T03:07:18;8.40;;;4.50;;
76597;SDS011;65486;53.144;18.134;2023-12-20T03:09:45;8.00;;;4.80;;
76597;SDS011;65486;53.144;18.134;2023-12-20T03:12:12;7.10;;;3.90;;
76597;SDS011;65486;53.144;18.134;2023-12-20T03:14:39;6.30;;;3.60;;
76597;SDS011;65486;53.144;18.134;2023-12-20T03:17:06;4.50;;;2.90;;
76597;SDS011;65486;53.144;18.134;2023-12-20T03:19:33;6.70;;;3.60;;
76597;SDS011;65486;53.144;18.134;2023-12-20T03:22:02;6.00;;;3.80;;
76597;SDS011;65486;53.144;18.134;2023-12-20T03:24:31;6.40;;;4.90;;
76597;SDS011;65486;53.144;18.134;2023-12-20T03:26:58;6.00;;;3.50;;
76597;SDS011;65486;53.144;18.134;2023-12-20T03:29:25;5.90;;;2.80;;
76597;SDS011;65486;53.144;18.134;2023-12-20T03:31:52;7.10;;;4.20;;
76597;SDS011;65486;53.144;18.134;2023-12-20T03:34:19;7.40;;;4.40;;
76597;SDS011;65486;53.144;18.134;2023-12-20T03:37:02;6.70;;;4.10;;
76597;SDS011;65486;53.144;18.134;2023-12-20T03:39:31;4.60;;;2.40;;
76597;SDS011;65486;53.144;18.134;2023-12-20T03:41:59;6.00;;;3.60;;
76597;SDS011;65486;53.144;18.134;2023-12-20T03:44:30;4.80;;;2.40;;
76597;SDS011;65486;53.144;18.134;2023-12-20T03:47:01;7.00;;;4.00;;
76597;SDS011;65486;53.144;18.134;2023-12-20T03:49:28;5.00;;;2.50;;
76597;SDS011;65486;53.144;18.134;2023-12-20T03:51:55;6.90;;;4.00;;
76597;SDS011;65486;53.144;18.134;2023-12-20T03:54:22;7.60;;;4.50;;
76597;SDS011;65486;53.144;18.134;2023-12-20T03:56:49;8.10;;;3.90;;
76597;SDS011;65486;53.144;18.134;2023-12-20T03:59:25;5.90;;;3.80;;
76597;SDS011;65486;53.144;18.134;2023-12-20T04:01:57;6.20;;;3.60;;
76597;SDS011;65486;53.144;18.134;2023-12-20T04:04:26;6.90;;;4.10;;
76597;SDS011;65486;53.144;18.134;2023-12-20T04:06:53;3.70;;;2.10;;
76597;SDS011;65486;53.144;18.134;2023-12-20T04:09:20;5.40;;;3.20;;
76597;SDS011;65486;53.144;18.134;2023-12-20T04:11:51;3.50;;;2.40;;
76597;SDS011;65486;53.144;18.134;2023-12-20T04:14:18;3.30;;;2.00;;
76597;SDS011;65486;53.144;18.134;2023-12-20T04:16:45;6.00;;;3.70;;
76597;SDS011;65486;53.144;18.134;2023-12-20T04:19:12;5.30;;;3.00;;
76597;SDS011;65486;53.144;18.134;2023-12-20T04:21:39;4.30;;;2.30;;
76597;SDS011;65486;53.144;18.134;2023-12-20T04:24:06;5.70;;;2.60;;
76597;SDS011;65486;53.144;18.134;2023-12-20T04:26:34;3.60;;;2.00;;
76597;SDS011;65486;53.144;18.134;2023-12-20T04:29:04;4.20;;;2.20;;
76597;SDS011;65486;53.144;18.134;2023-12-20T04:31:33;5.60;;;3.00;;
76597;SDS011;65486;53.144;18.134;2023-12-20T04:34:02;3.80;;;1.80;;
76597;SDS011;65486;53.144;18.134;2023-12-20T04:36:30;6.90;;;2.20;;
76597;SDS011;65486;53.144;18.134;2023-12-20T04:38:57;3.40;;;1.70;;
76597;SDS011;65486;53.144;18.134;2023-12-20T04:41:27;5.10;;;2.80;;
76597;SDS011;65486;53.144;18.134;2023-12-20T04:43:55;7.10;;;3.10;;
76597;SDS011;65486;53.144;18.134;2023-12-20T04:46:24;4.90;;;2.70;;
76597;SDS011;65486;53.144;18.134;2023-12-20T04:48:51;5.20;;;2.40;;
76597;SDS011;65486;53.144;18.134;2023-12-20T04:51:19;4.20;;;2.00;;
76597;SDS011;65486;53.144;18.134;2023-12-20T04:53:47;5.60;;;2.60;;
76597;SDS011;65486;53.144;18.134;2023-12-20T04:56:15;4.30;;;2.30;;
76597;SDS011;65486;53.144;18.134;2023-12-20T04:58:44;4.60;;;2.30;;
76597;SDS011;65486;53.144;18.134;2023-12-20T05:01:16;5.20;;;2.00;;
76597;SDS011;65486;53.144;18.134;2023-12-20T05:03:43;4.70;;;1.80;;
76597;SDS011;65486;53.144;18.134;2023-12-20T05:06:11;4.60;;;2.20;;
76597;SDS011;65486;53.144;18.134;2023-12-20T05:08:38;4.20;;;2.00;;
76597;SDS011;65486;53.144;18.134;2023-12-20T05:11:05;4.10;;;2.00;;
76597;SDS011;65486;53.144;18.134;2023-12-20T05:13:35;3.90;;;1.80;;
76597;SDS011;65486;53.144;18.134;2023-12-20T05:16:07;6.70;;;3.00;;
76597;SDS011;65486;53.144;18.134;2023-12-20T05:18:55;4.90;;;2.80;;
76597;SDS011;65486;53.144;18.134;2023-12-20T05:21:27;5.70;;;2.50;;
76597;SDS011;65486;53.144;18.134;2023-12-20T05:24:03;5.60;;;2.50;;
76597;SDS011;65486;53.144;18.134;2023-12-20T05:26:30;4.70;;;2.00;;
76597;SDS011;65486;53.144;18.134;2023-12-20T05:28:57;4.40;;;2.00;;
76597;SDS011;65486;53.144;18.134;2023-12-20T05:31:24;4.30;;;1.90;;
76597;SDS011;65486;53.144;18.134;2023-12-20T05:33:51;5.10;;;2.60;;
76597;SDS011;65486;53.144;18.134;2023-12-20T05:36:19;4.70;;;2.20;;
76597;SDS011;65486;53.144;18.134;2023-12-20T05:38:47;5.70;;;2.20;;
76597;SDS011;65486;53.144;18.134;2023-12-20T05:41:15;5.60;;;2.40;;
76597;SDS011;65486;53.144;18.134;2023-12-20T05:43:45;5.70;;;2.90;;
76597;SDS011;65486;53.144;18.134;2023-12-20T05:46:15;6.80;;;3.20;;
76597;SDS011;65486;53.144;18.134;2023-12-20T05:48:45;7.60;;;3.60;;
76597;SDS011;65486;53.144;18.134;2023-12-20T05:51:12;8.10;;;3.40;;
76597;SDS011;65486;53.144;18.134;2023-12-20T05:53:40;8.10;;;4.40;;
76597;SDS011;65486;53.144;18.134;2023-12-20T05:56:07;8.30;;;4.10;;
76597;SDS011;65486;53.144;18.134;2023-12-20T05:58:35;9.10;;;5.60;;
76597;SDS011;65486;53.144;18.134;2023-12-20T06:01:10;8.50;;;4.30;;
76597;SDS011;65486;53.144;18.134;2023-12-20T06:03:41;9.60;;;5.00;;
76597;SDS011;65486;53.144;18.134;2023-12-20T06:06:09;10.50;;;6.10;;
76597;SDS011;65486;53.144;18.134;2023-12-20T06:08:36;7.60;;;3.70;;
76597;SDS011;65486;53.144;18.134;2023-12-20T06:11:04;8.70;;;4.50;;
76597;SDS011;65486;53.144;18.134;2023-12-20T06:13:35;6.50;;;3.60;;
76597;SDS011;65486;53.144;18.134;2023-12-20T06:16:04;7.40;;;3.80;;
76597;SDS011;65486;53.144;18.134;2023-12-20T06:18:33;7.70;;;4.30;;
76597;SDS011;65486;53.144;18.134;2023-12-20T06:21:02;8.70;;;4.70;;
76597;SDS011;65486;53.144;18.134;2023-12-20T06:23:33;5.80;;;3.20;;
76597;SDS011;65486;53.144;18.134;2023-12-20T06:26:00;7.00;;;3.70;;
76597;SDS011;65486;53.144;18.134;2023-12-20T06:28:27;7.60;;;4.10;;
76597;SDS011;65486;53.144;18.134;2023-12-20T06:31:00;7.70;;;4.20;;
76597;SDS011;65486;53.144;18.134;2023-12-20T06:33:27;7.50;;;3.90;;
76597;SDS011;65486;53.144;18.134;2023-12-20T06:35:56;6.10;;;3.20;;
76597;SDS011;65486;53.144;18.134;2023-12-20T06:38:24;7.60;;;4.10;;
76597;SDS011;65486;53.144;18.134;2023-12-20T06:40:50;9.40;;;4.40;;
76597;SDS011;65486;53.144;18.134;2023-12-20T06:43:18;8.00;;;4.00;;
76597;SDS011;65486;53.144;18.134;2023-12-20T06:45:45;8.70;;;3.80;;
76597;SDS011;65486;53.144;18.134;2023-12-20T06:48:12;9.70;;;4.70;;
76597;SDS011;65486;53.144;18.134;2023-12-20T06:50:40;11.30;;;5.60;;
76597;SDS011;65486;53.144;18.134;2023-12-20T06:53:09;8.30;;;3.90;;
76597;SDS011;65486;53.144;18.134;2023-12-20T06:55:36;12.50;;;5.60;;
76597;SDS011;65486;53.144;18.134;2023-12-20T06:58:04;7.00;;;3.10;;
76597;SDS011;65486;53.144;18.134;2023-12-20T07:00:32;9.00;;;3.80;;
76597;SDS011;65486;53.144;18.134;2023-12-20T07:03:00;9.90;;;5.10;;
76597;SDS011;65486;53.144;18.134;2023-12-20T07:05:27;6.50;;;3.10;;
76597;SDS011;65486;53.144;18.134;2023-12-20T07:07:54;9.90;;;4.90;;
76597;SDS011;65486;53.144;18.134;2023-12-20T07:10:21;10.70;;;4.20;;
76597;SDS011;65486;53.144;18.134;2023-12-20T07:12:49;10.10;;;3.90;;
76597;SDS011;65486;53.144;18.134;2023-12-20T07:15:16;8.50;;;3.80;;
76597;SDS011;65486;53.144;18.134;2023-12-20T07:17:43;8.30;;;3.50;;
76597;SDS011;65486;53.144;18.134;2023-12-20T07:20:14;7.30;;;3.80;;
76597;SDS011;65486;53.144;18.134;2023-12-20T07:22:42;7.80;;;3.60;;
76597;SDS011;65486;53.144;18.134;2023-12-20T07:25:12;12.10;;;5.50;;
76597;SDS011;65486;53.144;18.134;2023-12-20T07:27:46;21.50;;;4.20;;
76597;SDS011;65486;53.144;18.134;2023-12-20T07:30:14;10.30;;;3.40;;
76597;SDS011;65486;53.144;18.134;2023-12-20T07:32:42;11.20;;;4.70;;
76597;SDS011;65486;53.144;18.134;2023-12-20T07:35:09;7.90;;;3.80;;
76597;SDS011;65486;53.144;18.134;2023-12-20T07:37:37;8.90;;;3.90;;
76597;SDS011;65486;53.144;18.134;2023-12-20T07:40:04;15.20;;;5.90;;
76597;SDS011;65486;53.144;18.134;2023-12-20T07:42:31;14.80;;;5.90;;
76597;SDS011;65486;53.144;18.134;2023-12-20T07:44:59;10.10;;;4.50;;
76597;SDS011;65486;53.144;18.134;2023-12-20T07:47:26;11.20;;;4.90;;
76597;SDS011;65486;53.144;18.134;2023-12-20T07:49:53;12.50;;;5.80;;
76597;SDS011;65486;53.144;18.134;2023-12-20T07:52:20;9.20;;;4.20;;
76597;SDS011;65486;53.144;18.134;2023-12-20T07:54:50;10.00;;;4.80;;
76597;SDS011;65486;53.144;18.134;2023-12-20T07:57:31;11.00;;;5.20;;
76597;SDS011;65486;53.144;18.134;2023-12-20T07:59:58;8.60;;;4.50;;
76597;SDS011;65486;53.144;18.134;2023-12-20T08:02:25;10.10;;;4.40;;
76597;SDS011;65486;53.144;18.134;2023-12-20T08:04:52;10.40;;;4.20;;
76597;SDS011;65486;53.144;18.134;2023-12-20T08:07:19;8.40;;;3.40;;
76597;SDS011;65486;53.144;18.134;2023-12-20T08:09:47;12.00;;;3.30;;
76597;SDS011;65486;53.144;18.134;2023-12-20T08:12:15;6.40;;;2.90;;
76597;SDS011;65486;53.144;18.134;2023-12-20T08:14:43;5.20;;;2.60;;
76597;SDS011;65486;53.144;18.134;2023-12-20T08:17:11;7.40;;;2.60;;
76597;SDS011;65486;53.144;18.134;2023-12-20T08:19:43;6.10;;;2.80;;
76597;SDS011;65486;53.144;18.134;2023-12-20T08:22:11;6.20;;;2.20;;
76597;SDS011;65486;53.144;18.134;2023-12-20T08:24:38;8.80;;;3.10;;
76597;SDS011;65486;53.144;18.134;2023-12-20T08:27:05;11.90;;;3.50;;
76597;SDS011;65486;53.144;18.134;2023-12-20T08:29:32;7.70;;;2.80;;
76597;SDS011;65486;53.144;18.134;2023-12-20T08:31:59;5.30;;;2.20;;
76597;SDS011;65486;53.144;18.134;2023-12-20T08:34:27;6.00;;;2.70;;
76597;SDS011;65486;53.144;18.134;2023-12-20T08:36:54;7.30;;;2.60;;
76597;SDS011;65486;53.144;18.134;2023-12-20T08:39:21;9.10;;;3.40;;
76597;SDS011;65486;53.144;18.134;2023-12-20T08:41:49;7.90;;;3.40;;
76597;SDS011;65486;53.144;18.134;2023-12-20T08:44:16;8.70;;;2.80;;
76597;SDS011;65486;53.144;18.134;2023-12-20T08:46:45;6.60;;;2.80;;
76597;SDS011;65486;53.144;18.134;2023-12-20T08:49:15;7.60;;;3.20;;
76597;SDS011;65486;53.144;18.134;2023-12-20T08:51:42;7.20;;;2.80;;
76597;SDS011;65486;53.144;18.134;2023-12-20T08:54:09;5.80;;;2.50;;
76597;SDS011;65486;53.144;18.134;2023-12-20T08:56:37;5.40;;;2.30;;
76597;SDS011;65486;53.144;18.134;2023-12-20T08:59:04;7.60;;;2.50;;
76597;SDS011;65486;53.144;18.134;2023-12-20T09:01:32;8.70;;;2.40;;
76597;SDS011;65486;53.144;18.134;2023-12-20T09:04:01;8.00;;;2.70;;
76597;SDS011;65486;53.144;18.134;2023-12-20T09:06:38;8.50;;;2.60;;
76597;SDS011;65486;53.144;18.134;2023-12-20T09:09:06;9.20;;;2.50;;
76597;SDS011;65486;53.144;18.134;2023-12-20T09:11:36;3.70;;;1.30;;
76597;SDS011;65486;53.144;18.134;2023-12-20T09:14:05;12.20;;;4.40;;
76597;SDS011;65486;53.144;18.134;2023-12-20T09:16:34;8.40;;;3.50;;
76597;SDS011;65486;53.144;18.134;2023-12-20T09:19:01;8.70;;;2.40;;
76597;SDS011;65486;53.144;18.134;2023-12-20T09:21:28;6.80;;;2.90;;
76597;SDS011;65486;53.144;18.134;2023-12-20T09:23:55;8.50;;;2.60;;
76597;SDS011;65486;53.144;18.134;2023-12-20T09:26:22;7.70;;;3.00;;
76597;SDS011;65486;53.144;18.134;2023-12-20T09:28:49;7.70;;;2.80;;
76597;SDS011;65486;53.144;18.134;2023-12-20T09:31:17;6.00;;;2.70;;
76597;SDS011;65486;53.144;18.134;2023-12-20T09:33:45;6.60;;;2.90;;
76597;SDS011;65486;53.144;18.134;2023-12-20T09:36:15;5.60;;;2.30;;
76597;SDS011;65486;53.144;18.134;2023-12-20T09:38:47;4.70;;;2.00;;
76597;SDS011;65486;53.144;18.134;2023-12-20T09:41:14;6.50;;;2.60;;
76597;SDS011;65486;53.144;18.134;2023-12-20T09:43:41;8.00;;;2.90;;
76597;SDS011;65486;53.144;18.134;2023-12-20T09:46:08;7.60;;;2.50;;
76597;SDS011;65486;53.144;18.134;2023-12-20T09:48:39;5.90;;;1.90;;
76597;SDS011;65486;53.144;18.134;2023-12-20T09:51:08;5.90;;;1.90;;
76597;SDS011;65486;53.144;18.134;2023-12-20T09:53:36;6.00;;;2.60;;
76597;SDS011;65486;53.144;18.134;2023-12-20T09:56:05;6.30;;;2.20;;
76597;SDS011;65486;53.144;18.134;2023-12-20T09:58:35;4.90;;;1.90;;
76597;SDS011;65486;53.144;18.134;2023-12-20T10:01:05;6.20;;;1.70;;
76597;SDS011;65486;53.144;18.134;2023-12-20T10:03:34;4.00;;;1.40;;
76597;SDS011;65486;53.144;18.134;2023-12-20T10:06:02;5.50;;;2.30;;
76597;SDS011;65486;53.144;18.134;2023-12-20T10:08:30;6.80;;;2.20;;
76597;SDS011;65486;53.144;18.134;2023-12-20T10:10:59;7.50;;;2.40;;
76597;SDS011;65486;53.144;18.134;2023-12-20T10:13:29;5.50;;;2.00;;
76597;SDS011;65486;53.144;18.134;2023-12-20T10:15:56;6.60;;;2.20;;
76597;SDS011;65486;53.144;18.134;2023-12-20T10:18:24;5.80;;;2.00;;
76597;SDS011;65486;53.144;18.134;2023-12-20T10:20:52;7.20;;;2.80;;
76597;SDS011;65486;53.144;18.134;2023-12-20T10:23:20;7.00;;;2.50;;
76597;SDS011;65486;53.144;18.134;2023-12-20T10:25:57;8.30;;;2.60;;
76597;SDS011;65486;53.144;18.134;2023-12-20T10:28:25;5.80;;;1.90;;
76597;SDS011;65486;53.144;18.134;2023-12-20T10:30:55;9.10;;;4.60;;
76597;SDS011;65486;53.144;18.134;2023-12-20T10:33:26;6.10;;;2.70;;
76597;SDS011;65486;53.144;18.134;2023-12-20T10:36:04;6.40;;;2.60;;
76597;SDS011;65486;53.144;18.134;2023-12-20T10:38:34;5.50;;;2.20;;
76597;SDS011;65486;53.144;18.134;2023-12-20T10:41:06;8.20;;;2.90;;
76597;SDS011;65486;53.144;18.134;2023-12-20T10:43:35;4.40;;;2.10;;
76597;SDS011;65486;53.144;18.134;2023-12-20T10:46:04;6.90;;;2.60;;
76597;SDS011;65486;53.144;18.134;2023-12-20T10:48:34;8.00;;;3.40;;
76597;SDS011;65486;53.144;18.134;2023-12-20T10:51:01;5.30;;;2.20;;
76597;SDS011;65486;53.144;18.134;2023-12-20T10:53:30;5.00;;;2.30;;
76597;SDS011;65486;53.144;18.134;2023-12-20T10:55:59;7.10;;;2.50;;
76597;SDS011;65486;53.144;18.134;2023-12-20T10:58:29;8.10;;;3.10;;
76597;SDS011;65486;53.144;18.134;2023-12-20T11:01:00;7.60;;;3.00;;
76597;SDS011;65486;53.144;18.134;2023-12-20T11:03:34;6.30;;;2.30;;
76597;SDS011;65486;53.144;18.134;2023-12-20T11:06:09;4.70;;;2.00;;
76597;SDS011;65486;53.144;18.134;2023-12-20T11:08:49;4.20;;;1.90;;
76597;SDS011;65486;53.144;18.134;2023-12-20T11:11:42;7.40;;;2.80;;
76597;SDS011;65486;53.144;18.134;2023-12-20T11:14:22;4.40;;;1.70;;
76597;SDS011;65486;53.144;18.134;2023-12-20T11:17:08;7.30;;;2.50;;
76597;SDS011;65486;53.144;18.134;2023-12-20T11:19:38;7.30;;;2.10;;
76597;SDS011;65486;53.144;18.134;2023-12-20T11:22:26;8.20;;;1.80;;
76597;SDS011;65486;53.144;18.134;2023-12-20T11:25:05;7.60;;;2.40;;
76597;SDS011;65486;53.144;18.134;2023-12-20T11:27:40;7.50;;;2.60;;
76597;SDS011;65486;53.144;18.134;2023-12-20T11:30:09;7.80;;;2.30;;
76597;SDS011;65486;53.144;18.134;2023-12-20T11:32:37;5.30;;;1.60;;
76597;SDS011;65486;53.144;18.134;2023-12-20T11:37:40;6.60;;;2.40;;
76597;SDS011;65486;53.144;18.134;2023-12-20T11:40:11;5.30;;;2.20;;
76597;SDS011;65486;53.144;18.134;2023-12-20T11:42:42;6.80;;;2.10;;
76597;SDS011;65486;53.144;18.134;2023-12-20T11:45:10;5.40;;;2.00;;
76597;SDS011;65486;53.144;18.134;2023-12-20T11:47:46;8.60;;;2.10;;
76597;SDS011;65486;53.144;18.134;2023-12-20T11:50:16;5.30;;;1.70;;
76597;SDS011;65486;53.144;18.134;2023-12-20T11:52:44;4.60;;;1.30;;
76597;SDS011;65486;53.144;18.134;2023-12-20T11:55:11;6.70;;;2.10;;
76597;SDS011;65486;53.144;18.134;2023-12-20T11:57:39;5.40;;;2.00;;
76597;SDS011;65486;53.144;18.134;2023-12-20T12:00:07;6.20;;;1.90;;
76597;SDS011;65486;53.144;18.134;2023-12-20T12:02:41;6.40;;;2.00;;
76597;SDS011;65486;53.144;18.134;2023-12-20T12:05:09;6.30;;;2.10;;
76597;SDS011;65486;53.144;18.134;2023-12-20T12:07:38;9.70;;;3.10;;
76597;SDS011;65486;53.144;18.134;2023-12-20T12:10:05;6.30;;;2.50;;
76597;SDS011;65486;53.144;18.134;2023-12-20T12:12:35;4.60;;;1.70;;
76597;SDS011;65486;53.144;18.134;2023-12-20T12:15:02;4.30;;;2.00;;
76597;SDS011;65486;53.144;18.134;2023-12-20T12:17:30;4.70;;;2.00;;
76597;SDS011;65486;53.144;18.134;2023-12-20T12:20:04;6.00;;;2.00;;
76597;SDS011;65486;53.144;18.134;2023-12-20T12:22:32;5.50;;;2.30;;
76597;SDS011;65486;53.144;18.134;2023-12-20T12:25:05;8.00;;;2.00;;
76597;SDS011;65486;53.144;18.134;2023-12-20T12:27:37;5.60;;;2.20;;
76597;SDS011;65486;53.144;18.134;2023-12-20T12:30:10;5.20;;;1.80;;
76597;SDS011;65486;53.144;18.134;2023-12-20T12:32:39;3.60;;;1.40;;
76597;SDS011;65486;53.144;18.134;2023-12-20T12:35:07;4.60;;;1.20;;
76597;SDS011;65486;53.144;18.134;2023-12-20T12:37:38;4.00;;;1.70;;
76597;SDS011;65486;53.144;18.134;2023-12-20T12:40:10;4.50;;;1.50;;
76597;SDS011;65486;53.144;18.134;2023-12-20T12:42:40;4.10;;;1.50;;
76597;SDS011;65486;53.144;18.134;2023-12-20T12:45:08;4.20;;;1.20;;
76597;SDS011;65486;53.144;18.134;2023-12-20T12:47:41;6.00;;;2.50;;
76597;SDS011;65486;53.144;18.134;2023-12-20T12:50:11;5.90;;;2.30;;
76597;SDS011;65486;53.144;18.134;2023-12-20T12:52:39;5.10;;;1.90;;
76597;SDS011;65486;53.144;18.134;2023-12-20T12:55:06;6.40;;;2.30;;
76597;SDS011;65486;53.144;18.134;2023-12-20T12:57:33;4.20;;;1.60;;
76597;SDS011;65486;53.144;18.134;2023-12-20T13:00:01;4.80;;;1.90;;
76597;SDS011;65486;53.144;18.134;2023-12-20T13:02:30;9.60;;;2.80;;
76597;SDS011;65486;53.144;18.134;2023-12-20T13:04:57;7.30;;;2.90;;
76597;SDS011;65486;53.144;18.134;2023-12-20T13:07:24;5.20;;;2.10;;
76597;SDS011;65486;53.144;18.134;2023-12-20T13:09:51;5.90;;;2.50;;
76597;SDS011;65486;53.144;18.134;2023-12-20T13:12:21;5.00;;;2.00;;
76597;SDS011;65486;53.144;18.134;2023-12-20T13:14:48;6.40;;;2.10;;
76597;SDS011;65486;53.144;18.134;2023-12-20T13:17:15;6.00;;;2.10;;
76597;SDS011;65486;53.144;18.134;2023-12-20T13:19:43;7.60;;;2.20;;
76597;SDS011;65486;53.144;18.134;2023-12-20T13:22:11;6.00;;;2.10;;
76597;SDS011;65486;53.144;18.134;2023-12-20T13:24:38;5.20;;;2.10;;
76597;SDS011;65486;53.144;18.134;2023-12-20T13:27:05;4.90;;;1.70;;
76597;SDS011;65486;53.144;18.134;2023-12-20T13:29:32;5.20;;;2.00;;
76597;SDS011;65486;53.144;18.134;2023-12-20T13:31:59;7.80;;;2.50;;
76597;SDS011;65486;53.144;18.134;2023-12-20T13:34:26;4.10;;;1.90;;
76597;SDS011;65486;53.144;18.134;2023-12-20T13:36:54;4.30;;;1.60;;
76597;SDS011;65486;53.144;18.134;2023-12-20T13:39:21;4.90;;;2.10;;
76597;SDS011;65486;53.144;18.134;2023-12-20T13:41:49;4.80;;;2.20;;
76597;SDS011;65486;53.144;18.134;2023-12-20T13:44:17;4.10;;;1.10;;
76597;SDS011;65486;53.144;18.134;2023-12-20T13:46:44;6.40;;;1.70;;
76597;SDS011;65486;53.144;18.134;2023-12-20T13:49:14;9.60;;;2.60;;
76597;SDS011;65486;53.144;18.134;2023-12-20T13:51:42;5.80;;;2.40;;
76597;SDS011;65486;53.144;18.134;2023-12-20T13:54:09;5.60;;;2.20;;
76597;SDS011;65486;53.144;18.134;2023-12-20T13:56:38;6.00;;;2.50;;
76597;SDS011;65486;53.144;18.134;2023-12-20T13:59:05;9.40;;;2.90;;
76597;SDS011;65486;53.144;18.134;2023-12-20T14:01:32;7.10;;;2.90;;
76597;SDS011;65486;53.144;18.134;2023-12-20T14:03:59;7.40;;;2.60;;
76597;SDS011;65486;53.144;18.134;2023-12-20T14:06:28;8.00;;;3.40;;
76597;SDS011;65486;53.144;18.134;2023-12-20T14:08:57;6.50;;;2.60;;
76597;SDS011;65486;53.144;18.134;2023-12-20T14:11:30;5.90;;;2.30;;
76597;SDS011;65486;53.144;18.134;2023-12-20T14:13:58;11.30;;;3.70;;
76597;SDS011;65486;53.144;18.134;2023-12-20T14:16:30;8.70;;;3.50;;
76597;SDS011;65486;53.144;18.134;2023-12-20T14:19:01;12.80;;;4.40;;
76597;SDS011;65486;53.144;18.134;2023-12-20T14:21:30;9.80;;;3.20;;
76597;SDS011;65486;53.144;18.134;2023-12-20T14:23:56;7.50;;;2.90;;
76597;SDS011;65486;53.144;18.134;2023-12-20T14:26:24;8.20;;;3.00;;
76597;SDS011;65486;53.144;18.134;2023-12-20T14:28:51;6.50;;;2.30;;
76597;SDS011;65486;53.144;18.134;2023-12-20T14:31:21;6.70;;;2.60;;
76597;SDS011;65486;53.144;18.134;2023-12-20T14:33:56;10.00;;;4.10;;
76597;SDS011;65486;53.144;18.134;2023-12-20T14:36:26;8.60;;;3.50;;
76597;SDS011;65486;53.144;18.134;2023-12-20T14:38:53;8.40;;;3.80;;
76597;SDS011;65486;53.144;18.134;2023-12-20T14:41:20;7.80;;;3.10;;
76597;SDS011;65486;53.144;18.134;2023-12-20T14:43:47;9.90;;;3.50;;
76597;SDS011;65486;53.144;18.134;2023-12-20T14:46:14;9.10;;;2.90;;